sensor_id;sensor_type;location;lat;lon;timestamp;P1;durP1;ratioP1;P2;durP2;ratioP2
16557;SDS011;8391;50.118;9.896;2023-01-04T00:02:03;28.20;;;15.40;;
16557;SDS011;8391;50.118;9.896;2023-01-04T00:04:32;26.07;;;15.30;;
16557;SDS011;8391;50.118;9.896;2023-01-04T00:07:00;27.87;;;14.13;;
16557;SDS011;8391;50.118;9.896;2023-01-04T00:09:29;29.93;;;15.97;;
16557;SDS011;8391;50.118;9.896;2023-01-04T00:11:58;27.83;;;13.80;;
16557;SDS011;8391;50.118;9.896;2023-01-04T00:14:26;22.20;;;7.60;;
16557;SDS011;8391;50.118;9.896;2023-01-04T00:16:54;25.67;;;6.97;;
16557;SDS011;8391;50.118;9.896;2023-01-04T00:19:22;26.27;;;7.57;;
16557;SDS011;8391;50.118;9.896;2023-01-04T00:21:50;15.60;;;6.67;;
16557;SDS011;8391;50.118;9.896;2023-01-04T00:24:19;25.30;;;7.60;;
16557;SDS011;8391;50.118;9.896;2023-01-04T00:26:49;137.67;;;10.93;;
16557;SDS011;8391;50.118;9.896;2023-01-04T00:29:17;71.60;;;9.53;;
16557;SDS011;8391;50.118;9.896;2023-01-04T00:31:45;62.80;;;9.73;;
16557;SDS011;8391;50.118;9.896;2023-01-04T00:34:14;57.10;;;9.83;;
16557;SDS011;8391;50.118;9.896;2023-01-04T00:36:44;16.70;;;9.10;;
16557;SDS011;8391;50.118;9.896;2023-01-04T00:39:13;16.97;;;10.23;;
16557;SDS011;8391;50.118;9.896;2023-01-04T00:41:44;19.33;;;10.43;;
16557;SDS011;8391;50.118;9.896;2023-01-04T00:44:26;15.70;;;9.83;;
16557;SDS011;8391;50.118;9.896;2023-01-04T00:46:55;17.60;;;9.60;;
16557;SDS011;8391;50.118;9.896;2023-01-04T00:49:25;16.17;;;9.87;;
16557;SDS011;8391;50.118;9.896;2023-01-04T00:51:53;20.23;;;9.60;;
16557;SDS011;8391;50.118;9.896;2023-01-04T00:54:22;16.43;;;8.80;;
16557;SDS011;8391;50.118;9.896;2023-01-04T00:56:54;12.50;;;8.60;;
16557;SDS011;8391;50.118;9.896;2023-01-04T00:59:22;14.87;;;9.00;;
16557;SDS011;8391;50.118;9.896;2023-01-04T01:01:51;22.97;;;13.53;;
16557;SDS011;8391;50.118;9.896;2023-01-04T01:04:21;22.53;;;11.50;;
16557;SDS011;8391;50.118;9.896;2023-01-04T01:06:50;18.87;;;11.30;;
16557;SDS011;8391;50.118;9.896;2023-01-04T01:09:19;20.37;;;11.80;;
16557;SDS011;8391;50.118;9.896;2023-01-04T01:11:49;22.67;;;11.57;;
16557;SDS011;8391;50.118;9.896;2023-01-04T01:14:19;19.70;;;10.43;;
16557;SDS011;8391;50.118;9.896;2023-01-04T01:16:49;17.07;;;9.20;;
16557;SDS011;8391;50.118;9.896;2023-01-04T01:19:23;17.97;;;9.03;;
16557;SDS011;8391;50.118;9.896;2023-01-04T01:21:53;15.97;;;8.73;;
16557;SDS011;8391;50.118;9.896;2023-01-04T01:24:22;15.73;;;8.77;;
16557;SDS011;8391;50.118;9.896;2023-01-04T01:26:50;16.17;;;9.00;;
16557;SDS011;8391;50.118;9.896;2023-01-04T01:29:19;18.07;;;8.40;;
16557;SDS011;8391;50.118;9.896;2023-01-04T01:31:48;19.67;;;8.97;;
16557;SDS011;8391;50.118;9.896;2023-01-04T01:34:17;20.17;;;8.47;;
16557;SDS011;8391;50.118;9.896;2023-01-04T01:36:46;15.40;;;8.93;;
16557;SDS011;8391;50.118;9.896;2023-01-04T01:39:14;17.50;;;7.90;;
16557;SDS011;8391;50.118;9.896;2023-01-04T01:41:42;15.50;;;9.00;;
16557;SDS011;8391;50.118;9.896;2023-01-04T01:47:36;14.93;;;8.07;;
16557;SDS011;8391;50.118;9.896;2023-01-04T01:50:17;16.50;;;8.27;;
16557;SDS011;8391;50.118;9.896;2023-01-04T01:52:52;16.50;;;8.63;;
16557;SDS011;8391;50.118;9.896;2023-01-04T01:55:21;16.37;;;9.20;;
16557;SDS011;8391;50.118;9.896;2023-01-04T01:57:53;14.70;;;8.00;;
16557;SDS011;8391;50.118;9.896;2023-01-04T02:00:24;16.90;;;8.20;;
16557;SDS011;8391;50.118;9.896;2023-01-04T02:02:56;17.37;;;9.30;;
16557;SDS011;8391;50.118;9.896;2023-01-04T02:05:37;14.70;;;8.33;;
16557;SDS011;8391;50.118;9.896;2023-01-04T02:08:06;12.80;;;7.43;;
16557;SDS011;8391;50.118;9.896;2023-01-04T02:10:36;19.50;;;9.07;;
16557;SDS011;8391;50.118;9.896;2023-01-04T02:13:05;16.03;;;8.73;;
16557;SDS011;8391;50.118;9.896;2023-01-04T02:15:40;19.73;;;9.30;;
16557;SDS011;8391;50.118;9.896;2023-01-04T02:18:23;28.27;;;8.63;;
16557;SDS011;8391;50.118;9.896;2023-01-04T02:20:58;59.10;;;9.47;;
16557;SDS011;8391;50.118;9.896;2023-01-04T02:26:44;43.73;;;8.93;;
16557;SDS011;8391;50.118;9.896;2023-01-04T02:30:06;27.57;;;8.40;;
16557;SDS011;8391;50.118;9.896;2023-01-04T02:33:29;15.77;;;7.07;;
16557;SDS011;8391;50.118;9.896;2023-01-04T02:36:11;48.47;;;8.57;;
16557;SDS011;8391;50.118;9.896;2023-01-04T02:38:52;19.07;;;7.47;;
16557;SDS011;8391;50.118;9.896;2023-01-04T02:41:32;20.13;;;8.57;;
16557;SDS011;8391;50.118;9.896;2023-01-04T02:44:09;18.43;;;8.37;;
16557;SDS011;8391;50.118;9.896;2023-01-04T02:47:00;13.67;;;6.73;;
16557;SDS011;8391;50.118;9.896;2023-01-04T02:49:35;16.40;;;8.27;;
16557;SDS011;8391;50.118;9.896;2023-01-04T02:52:29;11.77;;;7.00;;
16557;SDS011;8391;50.118;9.896;2023-01-04T02:54:58;13.83;;;7.57;;
16557;SDS011;8391;50.118;9.896;2023-01-04T02:57:31;10.60;;;6.73;;
16557;SDS011;8391;50.118;9.896;2023-01-04T03:00:26;11.90;;;7.27;;
16557;SDS011;8391;50.118;9.896;2023-01-04T03:03:27;24.20;;;6.90;;
16557;SDS011;8391;50.118;9.896;2023-01-04T03:06:35;17.60;;;9.50;;
16557;SDS011;8391;50.118;9.896;2023-01-04T03:09:13;27.07;;;14.87;;
16557;SDS011;8391;50.118;9.896;2023-01-04T03:11:47;50.77;;;23.87;;
16557;SDS011;8391;50.118;9.896;2023-01-04T03:14:38;30.93;;;15.07;;
16557;SDS011;8391;50.118;9.896;2023-01-04T03:17:12;24.37;;;13.73;;
16557;SDS011;8391;50.118;9.896;2023-01-04T03:19:43;13.67;;;8.87;;
16557;SDS011;8391;50.118;9.896;2023-01-04T03:22:23;13.57;;;7.53;;
16557;SDS011;8391;50.118;9.896;2023-01-04T03:25:14;13.20;;;8.27;;
16557;SDS011;8391;50.118;9.896;2023-01-04T03:28:02;11.90;;;7.00;;
16557;SDS011;8391;50.118;9.896;2023-01-04T03:30:50;11.97;;;6.63;;
16557;SDS011;8391;50.118;9.896;2023-01-04T03:33:41;9.03;;;6.27;;
16557;SDS011;8391;50.118;9.896;2023-01-04T03:36:39;16.03;;;8.27;;
16557;SDS011;8391;50.118;9.896;2023-01-04T03:39:17;11.13;;;7.03;;
16557;SDS011;8391;50.118;9.896;2023-01-04T03:42:14;14.37;;;8.10;;
16557;SDS011;8391;50.118;9.896;2023-01-04T03:45:09;21.03;;;12.40;;
16557;SDS011;8391;50.118;9.896;2023-01-04T03:48:01;17.67;;;7.60;;
16557;SDS011;8391;50.118;9.896;2023-01-04T03:50:57;13.53;;;7.53;;
16557;SDS011;8391;50.118;9.896;2023-01-04T03:53:32;12.43;;;7.53;;
16557;SDS011;8391;50.118;9.896;2023-01-04T03:56:06;16.90;;;8.33;;
16557;SDS011;8391;50.118;9.896;2023-01-04T03:58:35;17.87;;;8.13;;
16557;SDS011;8391;50.118;9.896;2023-01-04T04:01:20;12.47;;;7.47;;
16557;SDS011;8391;50.118;9.896;2023-01-04T04:03:52;20.47;;;10.43;;
16557;SDS011;8391;50.118;9.896;2023-01-04T04:06:37;19.87;;;7.27;;
16557;SDS011;8391;50.118;9.896;2023-01-04T04:09:24;14.87;;;7.63;;
16557;SDS011;8391;50.118;9.896;2023-01-04T04:11:53;13.87;;;7.70;;
16557;SDS011;8391;50.118;9.896;2023-01-04T04:14:21;15.93;;;7.90;;
16557;SDS011;8391;50.118;9.896;2023-01-04T04:16:50;13.53;;;7.47;;
16557;SDS011;8391;50.118;9.896;2023-01-04T04:19:18;11.83;;;7.23;;
16557;SDS011;8391;50.118;9.896;2023-01-04T04:21:47;9.17;;;6.70;;
16557;SDS011;8391;50.118;9.896;2023-01-04T04:24:16;10.60;;;7.43;;
16557;SDS011;8391;50.118;9.896;2023-01-04T04:26:49;15.33;;;9.37;;
16557;SDS011;8391;50.118;9.896;2023-01-04T04:29:21;22.80;;;13.83;;
16557;SDS011;8391;50.118;9.896;2023-01-04T04:31:50;18.23;;;11.13;;
16557;SDS011;8391;50.118;9.896;2023-01-04T04:34:18;13.57;;;7.90;;
16557;SDS011;8391;50.118;9.896;2023-01-04T04:36:47;10.10;;;7.10;;
16557;SDS011;8391;50.118;9.896;2023-01-04T04:39:15;10.97;;;6.80;;
16557;SDS011;8391;50.118;9.896;2023-01-04T04:41:43;11.23;;;6.87;;
16557;SDS011;8391;50.118;9.896;2023-01-04T04:44:11;11.77;;;7.60;;
16557;SDS011;8391;50.118;9.896;2023-01-04T04:46:43;10.40;;;6.47;;
16557;SDS011;8391;50.118;9.896;2023-01-04T04:49:13;8.93;;;6.30;;
16557;SDS011;8391;50.118;9.896;2023-01-04T04:51:43;9.03;;;6.73;;
16557;SDS011;8391;50.118;9.896;2023-01-04T04:54:14;9.73;;;6.77;;
16557;SDS011;8391;50.118;9.896;2023-01-04T04:56:44;10.73;;;6.97;;
16557;SDS011;8391;50.118;9.896;2023-01-04T04:59:12;10.67;;;7.30;;
16557;SDS011;8391;50.118;9.896;2023-01-04T05:01:40;8.90;;;6.50;;
16557;SDS011;8391;50.118;9.896;2023-01-04T05:04:10;12.03;;;7.73;;
16557;SDS011;8391;50.118;9.896;2023-01-04T05:06:42;12.47;;;7.57;;
16557;SDS011;8391;50.118;9.896;2023-01-04T05:09:11;10.40;;;7.47;;
16557;SDS011;8391;50.118;9.896;2023-01-04T05:11:40;10.40;;;6.87;;
16557;SDS011;8391;50.118;9.896;2023-01-04T05:14:26;14.07;;;8.93;;
16557;SDS011;8391;50.118;9.896;2023-01-04T05:16:56;14.87;;;7.53;;
16557;SDS011;8391;50.118;9.896;2023-01-04T05:19:24;9.77;;;7.07;;
16557;SDS011;8391;50.118;9.896;2023-01-04T05:21:53;9.83;;;6.70;;
16557;SDS011;8391;50.118;9.896;2023-01-04T05:24:21;10.80;;;6.77;;
16557;SDS011;8391;50.118;9.896;2023-01-04T05:26:49;11.57;;;7.00;;
16557;SDS011;8391;50.118;9.896;2023-01-04T05:29:17;10.87;;;6.80;;
16557;SDS011;8391;50.118;9.896;2023-01-04T05:32:04;12.27;;;7.60;;
16557;SDS011;8391;50.118;9.896;2023-01-04T05:34:33;9.53;;;6.97;;
16557;SDS011;8391;50.118;9.896;2023-01-04T05:37:01;13.10;;;7.63;;
16557;SDS011;8391;50.118;9.896;2023-01-04T05:39:29;13.63;;;7.03;;
16557;SDS011;8391;50.118;9.896;2023-01-04T05:41:57;11.10;;;7.50;;
16557;SDS011;8391;50.118;9.896;2023-01-04T05:44:43;14.50;;;8.90;;
16557;SDS011;8391;50.118;9.896;2023-01-04T05:47:12;14.97;;;9.67;;
16557;SDS011;8391;50.118;9.896;2023-01-04T05:49:41;17.47;;;11.50;;
16557;SDS011;8391;50.118;9.896;2023-01-04T05:52:09;21.83;;;12.17;;
16557;SDS011;8391;50.118;9.896;2023-01-04T05:54:38;19.80;;;11.00;;
16557;SDS011;8391;50.118;9.896;2023-01-04T05:57:06;18.33;;;10.87;;
16557;SDS011;8391;50.118;9.896;2023-01-04T05:59:35;19.57;;;10.93;;
16557;SDS011;8391;50.118;9.896;2023-01-04T06:02:11;20.80;;;12.03;;
16557;SDS011;8391;50.118;9.896;2023-01-04T06:04:44;24.90;;;12.57;;
16557;SDS011;8391;50.118;9.896;2023-01-04T06:07:18;25.70;;;14.00;;
16557;SDS011;8391;50.118;9.896;2023-01-04T06:09:46;13.23;;;9.10;;
16557;SDS011;8391;50.118;9.896;2023-01-04T06:12:14;17.10;;;9.67;;
16557;SDS011;8391;50.118;9.896;2023-01-04T06:14:43;13.37;;;7.60;;
16557;SDS011;8391;50.118;9.896;2023-01-04T06:17:11;9.07;;;6.17;;
16557;SDS011;8391;50.118;9.896;2023-01-04T06:19:40;11.00;;;6.03;;
16557;SDS011;8391;50.118;9.896;2023-01-04T06:22:09;16.75;;;11.43;;
16557;SDS011;8391;50.118;9.896;2023-01-04T06:24:37;12.30;;;6.73;;
16557;SDS011;8391;50.118;9.896;2023-01-04T06:27:05;10.40;;;7.23;;
16557;SDS011;8391;50.118;9.896;2023-01-04T06:29:33;12.33;;;7.57;;
16557;SDS011;8391;50.118;9.896;2023-01-04T06:32:02;7.33;;;5.40;;
16557;SDS011;8391;50.118;9.896;2023-01-04T06:34:30;6.07;;;4.47;;
16557;SDS011;8391;50.118;9.896;2023-01-04T06:36:59;6.90;;;5.23;;
16557;SDS011;8391;50.118;9.896;2023-01-04T06:39:28;8.90;;;4.87;;
16557;SDS011;8391;50.118;9.896;2023-01-04T06:41:56;7.53;;;4.33;;
16557;SDS011;8391;50.118;9.896;2023-01-04T06:44:32;9.20;;;5.23;;
16557;SDS011;8391;50.118;9.896;2023-01-04T06:47:03;9.43;;;5.03;;
16557;SDS011;8391;50.118;9.896;2023-01-04T06:49:31;8.03;;;4.73;;
16557;SDS011;8391;50.118;9.896;2023-01-04T06:52:01;7.07;;;4.87;;
16557;SDS011;8391;50.118;9.896;2023-01-04T06:54:29;8.60;;;5.43;;
16557;SDS011;8391;50.118;9.896;2023-01-04T06:56:58;8.07;;;5.97;;
16557;SDS011;8391;50.118;9.896;2023-01-04T06:59:27;8.93;;;5.37;;
16557;SDS011;8391;50.118;9.896;2023-01-04T07:01:55;6.00;;;5.20;;
16557;SDS011;8391;50.118;9.896;2023-01-04T07:04:23;6.63;;;4.73;;
16557;SDS011;8391;50.118;9.896;2023-01-04T07:06:51;7.83;;;5.30;;
16557;SDS011;8391;50.118;9.896;2023-01-04T07:09:21;5.73;;;4.70;;
16557;SDS011;8391;50.118;9.896;2023-01-04T07:11:49;6.83;;;4.87;;
16557;SDS011;8391;50.118;9.896;2023-01-04T07:14:17;8.53;;;4.90;;
16557;SDS011;8391;50.118;9.896;2023-01-04T07:16:46;8.93;;;5.07;;
16557;SDS011;8391;50.118;9.896;2023-01-04T07:19:14;7.20;;;4.93;;
16557;SDS011;8391;50.118;9.896;2023-01-04T07:21:42;5.70;;;4.30;;
16557;SDS011;8391;50.118;9.896;2023-01-04T07:24:10;8.77;;;5.53;;
16557;SDS011;8391;50.118;9.896;2023-01-04T07:26:40;8.73;;;4.30;;
16557;SDS011;8391;50.118;9.896;2023-01-04T07:29:09;6.13;;;4.27;;
16557;SDS011;8391;50.118;9.896;2023-01-04T07:31:42;6.97;;;4.43;;
16557;SDS011;8391;50.118;9.896;2023-01-04T07:34:12;7.30;;;4.50;;
16557;SDS011;8391;50.118;9.896;2023-01-04T07:36:41;7.40;;;4.67;;
16557;SDS011;8391;50.118;9.896;2023-01-04T07:39:10;8.03;;;4.80;;
16557;SDS011;8391;50.118;9.896;2023-01-04T07:41:38;7.67;;;4.50;;
16557;SDS011;8391;50.118;9.896;2023-01-04T07:44:09;8.77;;;4.40;;
16557;SDS011;8391;50.118;9.896;2023-01-04T07:46:38;6.50;;;4.50;;
16557;SDS011;8391;50.118;9.896;2023-01-04T07:49:09;9.33;;;4.37;;
16557;SDS011;8391;50.118;9.896;2023-01-04T07:51:43;6.63;;;3.90;;
16557;SDS011;8391;50.118;9.896;2023-01-04T07:54:12;5.70;;;4.63;;
16557;SDS011;8391;50.118;9.896;2023-01-04T07:56:43;11.00;;;5.87;;
16557;SDS011;8391;50.118;9.896;2023-01-04T07:59:13;18.10;;;10.97;;
16557;SDS011;8391;50.118;9.896;2023-01-04T08:01:46;7.60;;;5.40;;
16557;SDS011;8391;50.118;9.896;2023-01-04T08:04:16;10.57;;;6.00;;
16557;SDS011;8391;50.118;9.896;2023-01-04T08:06:51;10.93;;;7.03;;
16557;SDS011;8391;50.118;9.896;2023-01-04T08:09:22;10.17;;;5.60;;
16557;SDS011;8391;50.118;9.896;2023-01-04T08:11:51;10.37;;;5.13;;
16557;SDS011;8391;50.118;9.896;2023-01-04T08:14:19;10.67;;;5.60;;
16557;SDS011;8391;50.118;9.896;2023-01-04T08:16:48;11.87;;;5.80;;
16557;SDS011;8391;50.118;9.896;2023-01-04T08:19:17;8.13;;;6.13;;
16557;SDS011;8391;50.118;9.896;2023-01-04T08:21:47;9.53;;;6.33;;
16557;SDS011;8391;50.118;9.896;2023-01-04T08:24:16;5.93;;;4.57;;
16557;SDS011;8391;50.118;9.896;2023-01-04T08:26:46;7.23;;;4.70;;
16557;SDS011;8391;50.118;9.896;2023-01-04T08:29:18;49.23;;;28.83;;
16557;SDS011;8391;50.118;9.896;2023-01-04T08:31:46;13.87;;;9.60;;
16557;SDS011;8391;50.118;9.896;2023-01-04T08:34:15;11.23;;;7.70;;
16557;SDS011;8391;50.118;9.896;2023-01-04T08:36:44;15.07;;;8.53;;
16557;SDS011;8391;50.118;9.896;2023-01-04T08:39:14;11.53;;;5.37;;
16557;SDS011;8391;50.118;9.896;2023-01-04T08:41:43;6.60;;;4.40;;
16557;SDS011;8391;50.118;9.896;2023-01-04T08:44:38;7.43;;;3.97;;
16557;SDS011;8391;50.118;9.896;2023-01-04T08:47:06;8.43;;;3.67;;
16557;SDS011;8391;50.118;9.896;2023-01-04T08:49:35;6.43;;;4.20;;
16557;SDS011;8391;50.118;9.896;2023-01-04T08:52:03;6.10;;;3.70;;
16557;SDS011;8391;50.118;9.896;2023-01-04T08:54:31;7.23;;;3.63;;
16557;SDS011;8391;50.118;9.896;2023-01-04T08:57:00;4.90;;;3.30;;
16557;SDS011;8391;50.118;9.896;2023-01-04T08:59:28;4.03;;;2.90;;
16557;SDS011;8391;50.118;9.896;2023-01-04T09:01:58;4.10;;;2.80;;
16557;SDS011;8391;50.118;9.896;2023-01-04T09:04:31;4.60;;;2.87;;
16557;SDS011;8391;50.118;9.896;2023-01-04T09:06:59;4.83;;;2.87;;
16557;SDS011;8391;50.118;9.896;2023-01-04T09:09:27;5.70;;;2.73;;
16557;SDS011;8391;50.118;9.896;2023-01-04T09:11:55;4.33;;;2.60;;
16557;SDS011;8391;50.118;9.896;2023-01-04T09:14:25;6.77;;;2.73;;
16557;SDS011;8391;50.118;9.896;2023-01-04T09:16:53;4.13;;;2.73;;
16557;SDS011;8391;50.118;9.896;2023-01-04T09:19:22;6.80;;;3.00;;
16557;SDS011;8391;50.118;9.896;2023-01-04T09:21:51;5.27;;;3.07;;
16557;SDS011;8391;50.118;9.896;2023-01-04T09:24:19;4.50;;;2.97;;
16557;SDS011;8391;50.118;9.896;2023-01-04T09:26:48;4.73;;;2.60;;
16557;SDS011;8391;50.118;9.896;2023-01-04T09:29:16;3.97;;;2.40;;
16557;SDS011;8391;50.118;9.896;2023-01-04T09:31:44;4.27;;;2.57;;
16557;SDS011;8391;50.118;9.896;2023-01-04T09:34:13;3.23;;;2.20;;
16557;SDS011;8391;50.118;9.896;2023-01-04T09:36:45;3.83;;;2.47;;
16557;SDS011;8391;50.118;9.896;2023-01-04T09:39:15;4.17;;;2.80;;
16557;SDS011;8391;50.118;9.896;2023-01-04T09:41:51;5.27;;;2.77;;
16557;SDS011;8391;50.118;9.896;2023-01-04T09:44:29;4.63;;;3.20;;
16557;SDS011;8391;50.118;9.896;2023-01-04T09:47:25;5.53;;;2.80;;
16557;SDS011;8391;50.118;9.896;2023-01-04T09:50:02;5.30;;;2.60;;
16557;SDS011;8391;50.118;9.896;2023-01-04T09:52:41;3.77;;;2.70;;
16557;SDS011;8391;50.118;9.896;2023-01-04T09:55:21;3.63;;;2.40;;
16557;SDS011;8391;50.118;9.896;2023-01-04T09:58:06;2.30;;;1.67;;
16557;SDS011;8391;50.118;9.896;2023-01-04T10:00:46;5.10;;;2.33;;
16557;SDS011;8391;50.118;9.896;2023-01-04T10:03:19;2.80;;;2.00;;
16557;SDS011;8391;50.118;9.896;2023-01-04T10:05:54;5.40;;;2.60;;
16557;SDS011;8391;50.118;9.896;2023-01-04T10:08:24;5.07;;;1.90;;
16557;SDS011;8391;50.118;9.896;2023-01-04T10:10:55;2.67;;;1.53;;
16557;SDS011;8391;50.118;9.896;2023-01-04T10:13:42;3.63;;;1.87;;
16557;SDS011;8391;50.118;9.896;2023-01-04T10:16:43;2.30;;;1.60;;
16557;SDS011;8391;50.118;9.896;2023-01-04T10:19:42;1.63;;;1.50;;
16557;SDS011;8391;50.118;9.896;2023-01-04T10:22:47;10.43;;;4.83;;
16557;SDS011;8391;50.118;9.896;2023-01-04T10:25:26;4.30;;;2.50;;
16557;SDS011;8391;50.118;9.896;2023-01-04T10:28:05;5.27;;;2.37;;
16557;SDS011;8391;50.118;9.896;2023-01-04T10:30:48;3.90;;;2.50;;
16557;SDS011;8391;50.118;9.896;2023-01-04T10:33:46;4.57;;;2.00;;
16557;SDS011;8391;50.118;9.896;2023-01-04T10:36:18;2.67;;;1.67;;
16557;SDS011;8391;50.118;9.896;2023-01-04T10:38:48;2.20;;;1.50;;
16557;SDS011;8391;50.118;9.896;2023-01-04T10:41:25;2.13;;;1.50;;
16557;SDS011;8391;50.118;9.896;2023-01-04T10:44:00;3.20;;;2.23;;
16557;SDS011;8391;50.118;9.896;2023-01-04T10:46:41;4.47;;;2.33;;
16557;SDS011;8391;50.118;9.896;2023-01-04T10:49:14;3.03;;;1.50;;
16557;SDS011;8391;50.118;9.896;2023-01-04T10:51:51;3.30;;;1.33;;
16557;SDS011;8391;50.118;9.896;2023-01-04T10:54:27;2.07;;;1.40;;
16557;SDS011;8391;50.118;9.896;2023-01-04T10:57:05;3.43;;;1.40;;
16557;SDS011;8391;50.118;9.896;2023-01-04T10:59:40;2.10;;;1.80;;
16557;SDS011;8391;50.118;9.896;2023-01-04T11:02:14;6.37;;;2.43;;
16557;SDS011;8391;50.118;9.896;2023-01-04T11:04:50;2.63;;;1.83;;
16557;SDS011;8391;50.118;9.896;2023-01-04T11:07:27;1.80;;;1.37;;
16557;SDS011;8391;50.118;9.896;2023-01-04T11:10:05;2.73;;;1.50;;
16557;SDS011;8391;50.118;9.896;2023-01-04T11:12:40;6.90;;;1.77;;
16557;SDS011;8391;50.118;9.896;2023-01-04T11:15:09;2.47;;;1.70;;
16557;SDS011;8391;50.118;9.896;2023-01-04T11:17:38;2.00;;;1.60;;
16557;SDS011;8391;50.118;9.896;2023-01-04T11:20:08;2.50;;;1.70;;
16557;SDS011;8391;50.118;9.896;2023-01-04T11:22:38;4.53;;;2.00;;
16557;SDS011;8391;50.118;9.896;2023-01-04T11:25:12;2.70;;;1.77;;
16557;SDS011;8391;50.118;9.896;2023-01-04T11:28:05;2.10;;;1.50;;
16557;SDS011;8391;50.118;9.896;2023-01-04T11:30:45;7.17;;;2.27;;
16557;SDS011;8391;50.118;9.896;2023-01-04T11:33:30;1.60;;;1.50;;
16557;SDS011;8391;50.118;9.896;2023-01-04T11:36:30;2.43;;;1.80;;
16557;SDS011;8391;50.118;9.896;2023-01-04T11:39:02;1.90;;;1.40;;
16557;SDS011;8391;50.118;9.896;2023-01-04T11:41:32;2.37;;;1.90;;
16557;SDS011;8391;50.118;9.896;2023-01-04T11:44:02;4.43;;;2.60;;
16557;SDS011;8391;50.118;9.896;2023-01-04T11:46:33;2.37;;;1.10;;
16557;SDS011;8391;50.118;9.896;2023-01-04T11:49:02;2.57;;;1.30;;
16557;SDS011;8391;50.118;9.896;2023-01-04T11:51:35;1.90;;;1.07;;
16557;SDS011;8391;50.118;9.896;2023-01-04T11:54:16;3.33;;;1.87;;
16557;SDS011;8391;50.118;9.896;2023-01-04T11:56:59;4.57;;;1.70;;
16557;SDS011;8391;50.118;9.896;2023-01-04T11:59:38;4.00;;;2.47;;
16557;SDS011;8391;50.118;9.896;2023-01-04T12:02:20;6.83;;;3.07;;
16557;SDS011;8391;50.118;9.896;2023-01-04T12:05:15;3.57;;;1.70;;
16557;SDS011;8391;50.118;9.896;2023-01-04T12:07:55;2.20;;;1.50;;
16557;SDS011;8391;50.118;9.896;2023-01-04T12:10:24;2.93;;;1.80;;
16557;SDS011;8391;50.118;9.896;2023-01-04T12:12:54;1.93;;;1.73;;
16557;SDS011;8391;50.118;9.896;2023-01-04T12:15:26;2.33;;;1.73;;
16557;SDS011;8391;50.118;9.896;2023-01-04T12:18:16;2.13;;;1.40;;
16557;SDS011;8391;50.118;9.896;2023-01-04T12:20:52;1.93;;;1.67;;
16557;SDS011;8391;50.118;9.896;2023-01-04T12:23:21;2.00;;;1.70;;
16557;SDS011;8391;50.118;9.896;2023-01-04T12:25:49;3.57;;;1.50;;
16557;SDS011;8391;50.118;9.896;2023-01-04T12:28:32;4.63;;;1.97;;
16557;SDS011;8391;50.118;9.896;2023-01-04T12:37:08;1.17;;;1.07;;
16557;SDS011;8391;50.118;9.896;2023-01-04T12:43:24;3.03;;;0.93;;
16557;SDS011;8391;50.118;9.896;2023-01-04T12:58:40;2.23;;;1.70;;
16557;SDS011;8391;50.118;9.896;2023-01-04T13:04:43;2.90;;;1.67;;
16557;SDS011;8391;50.118;9.896;2023-01-04T13:10:17;4.77;;;3.07;;
16557;SDS011;8391;50.118;9.896;2023-01-04T13:12:58;1.67;;;1.10;;
16557;SDS011;8391;50.118;9.896;2023-01-04T13:15:59;2.13;;;1.57;;
16557;SDS011;8391;50.118;9.896;2023-01-04T13:18:42;3.80;;;2.30;;
16557;SDS011;8391;50.118;9.896;2023-01-04T13:21:14;1.90;;;1.30;;
16557;SDS011;8391;50.118;9.896;2023-01-04T13:23:51;4.20;;;1.83;;
16557;SDS011;8391;50.118;9.896;2023-01-04T13:26:27;1.33;;;1.13;;
16557;SDS011;8391;50.118;9.896;2023-01-04T13:29:12;1.50;;;1.30;;
16557;SDS011;8391;50.118;9.896;2023-01-04T13:31:45;4.63;;;2.27;;
16557;SDS011;8391;50.118;9.896;2023-01-04T13:34:28;5.07;;;2.20;;
16557;SDS011;8391;50.118;9.896;2023-01-04T13:37:12;3.47;;;2.00;;
16557;SDS011;8391;50.118;9.896;2023-01-04T13:39:47;4.07;;;2.10;;
16557;SDS011;8391;50.118;9.896;2023-01-04T13:42:21;1.40;;;1.30;;
16557;SDS011;8391;50.118;9.896;2023-01-04T13:47:51;3.07;;;1.47;;
16557;SDS011;8391;50.118;9.896;2023-01-04T13:50:27;1.80;;;1.50;;
16557;SDS011;8391;50.118;9.896;2023-01-04T13:53:00;2.03;;;1.50;;
16557;SDS011;8391;50.118;9.896;2023-01-04T13:55:34;2.90;;;1.50;;
16557;SDS011;8391;50.118;9.896;2023-01-04T13:58:05;1.57;;;1.47;;
16557;SDS011;8391;50.118;9.896;2023-01-04T14:00:44;2.87;;;1.60;;
16557;SDS011;8391;50.118;9.896;2023-01-04T14:03:20;2.67;;;1.50;;
16557;SDS011;8391;50.118;9.896;2023-01-04T14:06:00;1.60;;;1.43;;
16557;SDS011;8391;50.118;9.896;2023-01-04T14:08:43;5.77;;;2.10;;
16557;SDS011;8391;50.118;9.896;2023-01-04T14:11:18;7.27;;;3.90;;
16557;SDS011;8391;50.118;9.896;2023-01-04T14:14:23;2.90;;;2.60;;
16557;SDS011;8391;50.118;9.896;2023-01-04T14:17:15;8.40;;;3.60;;
16557;SDS011;8391;50.118;9.896;2023-01-04T14:19:51;1.87;;;1.73;;
16557;SDS011;8391;50.118;9.896;2023-01-04T14:25:34;2.10;;;1.70;;
16557;SDS011;8391;50.118;9.896;2023-01-04T14:28:17;2.23;;;1.70;;
16557;SDS011;8391;50.118;9.896;2023-01-04T14:31:12;2.40;;;2.03;;
16557;SDS011;8391;50.118;9.896;2023-01-04T14:33:52;5.67;;;2.93;;
16557;SDS011;8391;50.118;9.896;2023-01-04T14:36:22;1.90;;;1.70;;
16557;SDS011;8391;50.118;9.896;2023-01-04T14:38:56;3.77;;;3.00;;
16557;SDS011;8391;50.118;9.896;2023-01-04T14:41:36;3.10;;;1.63;;
16557;SDS011;8391;50.118;9.896;2023-01-04T14:44:08;6.20;;;4.47;;
16557;SDS011;8391;50.118;9.896;2023-01-04T14:46:39;2.40;;;1.60;;
16557;SDS011;8391;50.118;9.896;2023-01-04T14:49:08;4.30;;;2.63;;
16557;SDS011;8391;50.118;9.896;2023-01-04T14:51:37;2.97;;;2.67;;
16557;SDS011;8391;50.118;9.896;2023-01-04T14:54:12;2.63;;;2.17;;
16557;SDS011;8391;50.118;9.896;2023-01-04T14:56:49;2.90;;;2.30;;
16557;SDS011;8391;50.118;9.896;2023-01-04T14:59:18;4.70;;;1.73;;
16557;SDS011;8391;50.118;9.896;2023-01-04T15:01:49;1.70;;;1.50;;
16557;SDS011;8391;50.118;9.896;2023-01-04T15:04:18;5.40;;;2.93;;
16557;SDS011;8391;50.118;9.896;2023-01-04T15:06:47;3.03;;;1.73;;
16557;SDS011;8391;50.118;9.896;2023-01-04T15:09:19;3.77;;;2.50;;
16557;SDS011;8391;50.118;9.896;2023-01-04T15:11:48;5.53;;;4.30;;
16557;SDS011;8391;50.118;9.896;2023-01-04T15:14:17;4.63;;;2.20;;
16557;SDS011;8391;50.118;9.896;2023-01-04T15:16:46;5.03;;;2.23;;
16557;SDS011;8391;50.118;9.896;2023-01-04T15:19:14;4.90;;;2.93;;
16557;SDS011;8391;50.118;9.896;2023-01-04T15:21:46;4.17;;;3.10;;
16557;SDS011;8391;50.118;9.896;2023-01-04T15:24:14;3.33;;;2.50;;
16557;SDS011;8391;50.118;9.896;2023-01-04T15:26:43;3.33;;;2.10;;
16557;SDS011;8391;50.118;9.896;2023-01-04T15:29:12;2.77;;;2.00;;
16557;SDS011;8391;50.118;9.896;2023-01-04T15:31:40;3.97;;;2.33;;
16557;SDS011;8391;50.118;9.896;2023-01-04T15:34:09;3.60;;;1.63;;
16557;SDS011;8391;50.118;9.896;2023-01-04T15:36:38;2.47;;;2.10;;
16557;SDS011;8391;50.118;9.896;2023-01-04T15:39:07;1.80;;;1.70;;
16557;SDS011;8391;50.118;9.896;2023-01-04T15:41:39;4.40;;;2.10;;
16557;SDS011;8391;50.118;9.896;2023-01-04T15:44:26;3.90;;;2.03;;
16557;SDS011;8391;50.118;9.896;2023-01-04T15:46:54;3.03;;;1.60;;
16557;SDS011;8391;50.118;9.896;2023-01-04T15:49:24;2.47;;;1.80;;
16557;SDS011;8391;50.118;9.896;2023-01-04T15:51:52;3.03;;;1.77;;
16557;SDS011;8391;50.118;9.896;2023-01-04T15:54:23;4.47;;;1.60;;
16557;SDS011;8391;50.118;9.896;2023-01-04T15:56:51;1.53;;;1.30;;
16557;SDS011;8391;50.118;9.896;2023-01-04T15:59:19;3.17;;;2.40;;
16557;SDS011;8391;50.118;9.896;2023-01-04T16:01:49;2.80;;;1.47;;
16557;SDS011;8391;50.118;9.896;2023-01-04T16:04:18;1.57;;;1.47;;
16557;SDS011;8391;50.118;9.896;2023-01-04T16:06:49;2.43;;;1.60;;
16557;SDS011;8391;50.118;9.896;2023-01-04T16:09:17;1.50;;;1.40;;
16557;SDS011;8391;50.118;9.896;2023-01-04T16:11:45;1.53;;;1.43;;
16557;SDS011;8391;50.118;9.896;2023-01-04T16:14:31;1.93;;;1.67;;
16557;SDS011;8391;50.118;9.896;2023-01-04T16:17:01;4.60;;;2.70;;
16557;SDS011;8391;50.118;9.896;2023-01-04T16:19:29;2.50;;;1.70;;